Relatrios de METAR prximas

 

LPAR - Alverca, Portugal
Distance from station: S 38km
Actualizado: 24/09/2021 17:00
NO Actual
Few Clouds
Few Clouds
 Vento de SO
Vento: SO 22 km/h
Temperatura: 25°C
Ponto de Orvalho: 12°C
Humidade: 44%
Barmetro: 1012 hPa
Nuvens: Few Clouds
Visibilidade: 10 km
Cloud details: Few Clouds 914 m
2021/09/24 16:00 LPAR 241600Z 22012KT 9999 FEW030 25/12 Q1012
LPPT - Lisbon/Portela, Portugal
Distance from station: S 52km
Actualizado: 25/09/2021 03:30
Few Clouds
Few Clouds
 Vento de SSE
Vento: SSE 11 km/h
Temperatura: 18°C
Ponto de Orvalho: 16°C
Humidade: 88%
Barmetro: 1015 hPa
Nuvens: Few Clouds
Visibilidade: 10 km
Cloud details: Muito Nublado 427 m
Few Clouds 610 m
2021/09/25 02:30 LPPT 250230Z 16006KT 9999 BKN014 FEW020CB 18/16 Q1015
 
LPST - Sintra/Granja (a, Portugal
Distance from station: SSO 53km
Actualizado: 24/09/2021 17:00
NO Actual
Few Clouds
Few Clouds
 Vento de OSO
Vento: OSO 13 km/h
Temperatura: 23°C
Ponto de Orvalho: 13°C
Humidade: 53%
Barmetro: 1013 hPa
Nuvens: Few Clouds
Visibilidade: 10 km
Cloud details: Few Clouds 914 m
2021/09/24 16:00 LPST 241600Z 25007KT 210V280 9999 FEW030 23/13 Q1013
LPMT - Montijo (por-Afb, Portugal
Distance from station: S 59km
Actualizado: 25/09/2021 03:00
Few Clouds
Few Clouds
 Vento de SSE
Vento: SSE 11 km/h
Temperatura: 18°C
Ponto de Orvalho: 17°C
Humidade: 94%
Barmetro: 1014 hPa
Nuvens: Few Clouds
Visibilidade: 10 km
Cloud details: Few Clouds 610 m
2021/09/25 02:00 LPMT 250200Z 16006KT 9999 FEW020 18/17 Q1014
 
LPCS - Cascais, Portugal
Distance from station: SSO 63km
Actualizado: 24/09/2021 21:00
NO Actual
Few Clouds
Few Clouds
 Vento de SO
Vento: SO 11 km/h
Temperatura: 19°C
Ponto de Orvalho: 16°C
Humidade: 83%
Barmetro: 1014 hPa
Nuvens: Few Clouds
Visibilidade: 10 km
Cloud details: Few Clouds 488 m
2021/09/24 20:00 LPCS 242000Z 22006KT 9999 FEW016 19/16 Q1014
LPMR - Monte Real(Por-A, Portugal
Distance from station: N 67km
Actualizado: 25/09/2021 03:00
Parc. Nublado
Parc. Nublado
 Vento de SE
Vento: SE 11 km/h
Temperatura: 17°C
Ponto de Orvalho: 15°C
Humidade: 88%
Barmetro: 1014 hPa
Nuvens: Parc. Nublado
Visibilidade: 10 km
Cloud details: Parc. Nublado 457 m
2021/09/25 02:00 LPMR 250200Z 14006KT 9999 SCT015 17/15 Q1014